Time;durP1;ratioP1;P1;durP2;ratioP2;P2;SDS_P1;SDS_P2;PMS_P1;PMS_P2;Temp;Humidity;BMP_temperature;BMP_pressure;BME280_temperature;BME280_humidity;BME280_pressure;Samples;Min_cycle;Max_cycle;Signal;HPM_P1;HPM_P2
2021/07/17 00:01:08;;;;;;;9.93;5.95;;;23.10;99.90;;;;;;4826255;29;20187;-90
2021/07/17 00:03:34;;;;;;;8.82;6.03;;;23.10;99.90;;;;;;4842339;29;20182;-89
2021/07/17 00:06:00;;;;;;;13.30;5.63;;;23.10;99.90;;;;;;4842374;29;20247;-90
2021/07/17 00:08:26;;;;;;;9.10;6.03;;;23.10;99.90;;;;;;4826069;29;20219;-89
2021/07/17 00:10:51;;;;;;;9.77;5.85;;;23.10;99.90;;;;;;4842494;29;20660;-89
2021/07/17 00:13:18;;;;;;;12.75;5.78;;;23.10;99.90;;;;;;4825808;29;20187;-90
2021/07/17 00:15:46;;;;;;;7.63;5.65;;;23.10;99.90;;;;;;4840747;29;20191;-90
2021/07/17 00:18:17;;;;;;;7.35;6.00;;;23.10;99.90;;;;;;4841112;29;20187;-89
2021/07/17 00:20:44;;;;;;;7.65;5.68;;;23.00;99.90;;;;;;4840621;29;20197;-89
2021/07/17 00:23:10;;;;;;;9.43;5.60;;;23.00;99.90;;;;;;4842363;29;20190;-90
2021/07/17 00:25:36;;;;;;;9.88;5.50;;;23.00;99.90;;;;;;4841466;29;20191;-89
2021/07/17 00:28:02;;;;;;;8.50;6.07;;;23.00;99.90;;;;;;4840852;29;20219;-90
2021/07/17 00:30:28;;;;;;;9.27;5.78;;;22.90;99.90;;;;;;4825546;29;20222;-90
2021/07/17 00:32:54;;;;;;;10.02;5.47;;;22.90;99.90;;;;;;4810456;29;20183;-90
2021/07/17 00:35:19;;;;;;;8.65;5.72;;;22.90;99.90;;;;;;4840895;29;20195;-90
2021/07/17 00:37:45;;;;;;;9.50;5.88;;;22.80;99.90;;;;;;4841984;29;20661;-91
2021/07/17 00:40:12;;;;;;;8.80;6.25;;;22.80;99.90;;;;;;4842310;29;20188;-93
2021/07/17 00:42:43;;;;;;;11.73;5.72;;;22.80;99.90;;;;;;4825470;29;20180;-91
2021/07/17 00:45:10;;;;;;;9.48;5.68;;;22.80;99.90;;;;;;4841053;29;20185;-90
2021/07/17 00:47:37;;;;;;;7.95;5.03;;;22.80;99.90;;;;;;4841710;29;20237;-90
2021/07/17 00:50:09;;;;;;;10.48;6.50;;;22.70;99.90;;;;;;4810445;29;20266;-90
2021/07/17 00:52:35;;;;;;;10.02;6.25;;;22.70;99.90;;;;;;4825774;29;20184;-89
2021/07/17 00:55:02;;;;;;;7.38;5.78;;;22.70;99.90;;;;;;4840810;29;20248;-90
2021/07/17 00:57:31;;;;;;;15.65;6.13;;;22.60;99.90;;;;;;4840916;29;20661;-93
2021/07/17 00:59:59;;;;;;;6.95;5.72;;;22.60;99.90;;;;;;4840592;29;20644;-90
2021/07/17 01:02:25;;;;;;;7.40;4.88;;;22.60;99.90;;;;;;4855977;29;20618;-90
2021/07/17 01:04:53;;;;;;;8.27;5.82;;;22.60;99.90;;;;;;4840427;29;20206;-90
2021/07/17 01:07:19;;;;;;;9.70;5.93;;;22.60;99.90;;;;;;4842320;29;20207;-90
2021/07/17 01:09:45;;;;;;;7.40;5.15;;;22.60;99.90;;;;;;4840376;29;20689;-91
2021/07/17 01:12:10;;;;;;;9.02;6.13;;;22.50;99.90;;;;;;4842092;29;20523;-90
2021/07/17 01:14:38;;;;;;;8.57;5.72;;;22.50;99.90;;;;;;4825950;29;20283;-90
2021/07/17 01:17:04;;;;;;;7.15;5.60;;;22.50;99.90;;;;;;4841883;29;20229;-90
2021/07/17 01:19:30;;;;;;;10.98;5.95;;;22.50;99.90;;;;;;4840720;29;20218;-90
2021/07/17 01:21:56;;;;;;;8.82;5.30;;;22.50;99.90;;;;;;4855787;29;20185;-89
2021/07/17 01:24:24;;;;;;;9.75;5.07;;;22.50;99.90;;;;;;4840420;29;20184;-89
2021/07/17 01:26:51;;;;;;;11.05;5.93;;;22.50;99.90;;;;;;4840409;29;20186;-89
2021/07/17 01:29:17;;;;;;;11.27;5.47;;;22.40;99.90;;;;;;4840382;29;20278;-90
2021/07/17 01:31:44;;;;;;;8.77;5.38;;;22.40;99.90;;;;;;4809968;29;20328;-90
2021/07/17 01:34:10;;;;;;;7.18;5.93;;;22.40;99.90;;;;;;4841789;29;20641;-90
2021/07/17 01:36:37;;;;;;;10.75;5.40;;;22.30;99.90;;;;;;4841237;29;20190;-89
2021/07/17 01:39:03;;;;;;;9.45;5.50;;;22.30;99.90;;;;;;4859337;29;20187;-90
2021/07/17 01:41:29;;;;;;;8.90;5.15;;;22.30;99.90;;;;;;4843584;29;20648;-90
2021/07/17 01:43:57;;;;;;;9.07;6.03;;;22.30;99.90;;;;;;4858629;29;20282;-90
2021/07/17 01:46:23;;;;;;;8.73;5.93;;;22.30;99.90;;;;;;4844048;29;20202;-90
2021/07/17 01:48:51;;;;;;;8.77;5.60;;;22.20;99.90;;;;;;4843071;29;20763;-90
2021/07/17 01:51:17;;;;;;;9.23;5.20;;;22.20;99.90;;;;;;4855522;29;20235;-90
2021/07/17 01:53:42;;;;;;;13.80;5.95;;;22.20;99.90;;;;;;4843205;29;20244;-90
2021/07/17 01:56:08;;;;;;;9.73;5.53;;;22.20;99.90;;;;;;4844884;29;20187;-90
2021/07/17 01:58:34;;;;;;;11.80;5.07;;;22.10;99.90;;;;;;4827895;29;20191;-90
2021/07/17 02:01:00;;;;;;;9.88;6.20;;;22.10;99.90;;;;;;4843070;29;20192;-90
2021/07/17 02:03:25;;;;;;;9.57;5.47;;;22.10;99.90;;;;;;4828138;29;20558;-90
2021/07/17 02:05:51;;;;;;;10.02;5.70;;;22.10;99.90;;;;;;4843219;29;20654;-91
2021/07/17 02:08:16;;;;;;;7.53;5.38;;;22.10;99.90;;;;;;4844460;29;20250;-90
2021/07/17 02:10:42;;;;;;;8.05;5.40;;;22.00;99.90;;;;;;4827955;29;20236;-91
2021/07/17 02:13:11;;;;;;;11.38;5.82;;;22.00;99.90;;;;;;4844216;29;20665;-89
2021/07/17 02:15:46;;;;;;;8.77;5.82;;;22.00;99.90;;;;;;4842537;29;20215;-88
2021/07/17 02:18:13;;;;;;;9.23;5.68;;;22.00;99.90;;;;;;4844198;29;20183;-90
2021/07/17 02:20:40;;;;;;;8.70;5.60;;;22.10;99.90;;;;;;4844044;29;20700;-88
2021/07/17 02:23:07;;;;;;;7.85;5.55;;;22.00;99.90;;;;;;4842875;29;20183;-90
2021/07/17 02:25:32;;;;;;;8.65;5.78;;;22.00;99.90;;;;;;4827907;29;20653;-90
2021/07/17 02:27:58;;;;;;;8.90;6.22;;;22.00;99.90;;;;;;4842519;29;20219;-90
2021/07/17 02:30:24;;;;;;;18.20;7.32;;;22.00;99.90;;;;;;4827582;29;20196;-90
2021/07/17 02:32:50;;;;;;;11.23;6.60;;;22.00;99.90;;;;;;4843778;29;20190;-89
2021/07/17 02:35:16;;;;;;;7.57;6.15;;;22.00;99.90;;;;;;4842689;29;20248;-90
2021/07/17 02:37:41;;;;;;;7.82;5.85;;;22.10;99.90;;;;;;4827085;29;20190;-89
2021/07/17 02:40:09;;;;;;;9.55;6.10;;;22.10;99.90;;;;;;4827427;29;20186;-89
2021/07/17 02:42:35;;;;;;;12.10;5.78;;;22.00;99.90;;;;;;4842406;29;20198;-91
2021/07/17 02:45:02;;;;;;;10.65;6.32;;;22.00;99.90;;;;;;4842462;29;20613;-89
2021/07/17 02:47:28;;;;;;;11.90;6.72;;;22.00;99.90;;;;;;4842583;29;20242;-90
2021/07/17 02:49:53;;;;;;;10.85;6.10;;;22.00;99.90;;;;;;4811370;29;20712;-91
2021/07/17 02:52:19;;;;;;;13.55;5.85;;;21.90;99.90;;;;;;4842486;29;20275;-91
2021/07/17 02:54:45;;;;;;;11.35;6.15;;;21.90;99.90;;;;;;4843171;29;20551;-91
2021/07/17 02:57:10;;;;;;;9.98;6.15;;;21.90;99.90;;;;;;4843572;29;20195;-90
2021/07/17 02:59:36;;;;;;;9.73;6.25;;;21.90;99.90;;;;;;4843497;29;20214;-90
2021/07/17 03:02:02;;;;;;;12.15;6.60;;;21.90;99.90;;;;;;4826832;29;20183;-89
2021/07/17 03:04:27;;;;;;;13.77;6.25;;;21.90;99.90;;;;;;4842215;29;20218;-90
2021/07/17 03:06:53;;;;;;;9.35;6.97;;;21.90;99.90;;;;;;4841643;29;20243;-90
2021/07/17 03:09:18;;;;;;;14.00;6.90;;;21.90;99.90;;;;;;4842061;29;20278;-91
2021/07/17 03:11:44;;;;;;;12.93;6.68;;;22.00;99.90;;;;;;4826497;29;20215;-88
2021/07/17 03:14:10;;;;;;;11.60;7.20;;;22.00;99.90;;;;;;4857801;29;20639;-89
2021/07/17 03:16:37;;;;;;;12.82;6.82;;;22.00;99.90;;;;;;4843102;29;20269;-89
2021/07/17 03:19:03;;;;;;;14.55;6.32;;;22.00;99.90;;;;;;4842212;29;20219;-92
2021/07/17 03:21:28;;;;;;;12.05;7.38;;;22.00;99.90;;;;;;4842460;29;20191;-93
2021/07/17 03:23:54;;;;;;;11.73;6.80;;;22.00;99.90;;;;;;4842150;29;20326;-92
2021/07/17 03:26:20;;;;;;;17.40;7.25;;;22.00;99.90;;;;;;4846105;29;20645;-91
2021/07/17 03:28:46;;;;;;;12.00;6.43;;;22.00;99.90;;;;;;4845738;29;20222;-88
2021/07/17 03:31:11;;;;;;;9.10;6.22;;;22.10;99.90;;;;;;4849688;29;20704;-90
2021/07/17 03:33:37;;;;;;;15.85;7.30;;;22.10;99.90;;;;;;4847025;29;20614;-92
2021/07/17 03:36:04;;;;;;;13.05;7.50;;;22.10;99.90;;;;;;4843432;29;20187;-93
2021/07/17 03:38:30;;;;;;;13.13;7.07;;;22.10;99.90;;;;;;4842254;29;20183;-93
2021/07/17 03:40:56;;;;;;;13.07;6.90;;;22.10;99.90;;;;;;4842936;29;20180;-91
2021/07/17 03:43:21;;;;;;;11.55;6.85;;;22.10;99.90;;;;;;4843276;29;20183;-93
2021/07/17 03:45:47;;;;;;;11.45;6.95;;;22.10;99.90;;;;;;4843956;29;20191;-91
2021/07/17 03:48:13;;;;;;;14.75;7.10;;;22.10;99.90;;;;;;4842169;29;20219;-91
2021/07/17 03:50:38;;;;;;;12.75;6.90;;;22.10;99.90;;;;;;4840978;29;20242;-93
2021/07/17 03:53:04;;;;;;;18.58;7.10;;;22.20;99.90;;;;;;4842615;29;20185;-91
2021/07/17 03:55:31;;;;;;;16.02;8.20;;;22.20;99.90;;;;;;4842005;29;20223;-92
2021/07/17 03:57:56;;;;;;;11.50;6.82;;;22.20;99.90;;;;;;4841584;29;20212;-91
2021/07/17 04:00:23;;;;;;;16.25;7.70;;;22.20;99.90;;;;;;4841634;29;20187;-91
2021/07/17 04:02:48;;;;;;;13.98;7.65;;;22.30;99.90;;;;;;4841222;29;20192;-93
2021/07/17 04:05:16;;;;;;;11.63;7.50;;;22.30;99.90;;;;;;4826198;29;20216;-92
2021/07/17 04:07:43;;;;;;;17.40;7.10;;;22.30;99.90;;;;;;4842918;29;20213;-92
2021/07/17 04:10:10;;;;;;;15.38;6.90;;;22.30;99.90;;;;;;4842184;29;20194;-92
2021/07/17 04:12:36;;;;;;;15.98;7.55;;;22.30;99.90;;;;;;4841506;29;20210;-93
2021/07/17 04:15:04;;;;;;;13.02;7.00;;;22.30;99.90;;;;;;4841149;29;20683;-92
2021/07/17 04:17:30;;;;;;;10.82;6.97;;;22.30;99.90;;;;;;4841219;29;20190;-93
2021/07/17 04:19:56;;;;;;;12.30;7.70;;;22.40;99.90;;;;;;4840938;29;20192;-90
2021/07/17 04:22:22;;;;;;;15.95;7.80;;;22.40;99.90;;;;;;4841700;29;20183;-92
2021/07/17 04:24:48;;;;;;;12.00;7.47;;;22.40;99.90;;;;;;4841476;29;20190;-93
2021/07/17 04:27:14;;;;;;;12.25;7.50;;;22.40;99.90;;;;;;4825772;29;20183;-91
2021/07/17 04:29:39;;;;;;;14.48;7.75;;;22.40;99.90;;;;;;4826091;29;20755;-92
2021/07/17 04:32:05;;;;;;;15.77;7.60;;;22.40;99.90;;;;;;4840727;29;20187;-93
2021/07/17 04:34:31;;;;;;;15.25;7.32;;;22.40;99.90;;;;;;4842345;29;20183;-92
2021/07/17 04:36:57;;;;;;;9.77;7.97;;;22.40;99.90;;;;;;4840647;29;20193;-92
2021/07/17 04:39:24;;;;;;;12.60;7.65;;;22.50;99.90;;;;;;4842498;29;20180;-93
2021/07/17 04:41:49;;;;;;;15.40;7.93;;;22.50;99.90;;;;;;4841255;29;20661;-93
2021/07/17 04:44:15;;;;;;;12.45;7.47;;;22.50;99.90;;;;;;4840737;29;20206;-93
2021/07/17 04:46:41;;;;;;;14.60;7.97;;;22.40;99.90;;;;;;4842185;29;20630;-92
2021/07/17 04:49:06;;;;;;;13.95;7.55;;;22.40;99.90;;;;;;4825536;29;20680;-93
2021/07/17 04:51:32;;;;;;;16.58;8.02;;;22.50;99.90;;;;;;4842459;29;20274;-94
2021/07/17 04:53:59;;;;;;;17.15;8.05;;;22.50;99.90;;;;;;4859096;29;20507;-93
2021/07/17 04:56:24;;;;;;;13.18;7.75;;;22.60;99.90;;;;;;4844723;29;20179;-95
2021/07/17 04:58:50;;;;;;;14.65;8.55;;;22.60;99.90;;;;;;4860134;29;20719;-94
2021/07/17 05:01:16;;;;;;;15.82;8.02;;;22.60;99.90;;;;;;4843655;29;20549;-93
2021/07/17 05:03:41;;;;;;;13.52;8.43;;;22.60;99.90;;;;;;4859407;29;20189;-93
2021/07/17 05:06:08;;;;;;;17.50;8.25;;;22.70;99.90;;;;;;4845197;29;20315;-94
2021/07/17 05:08:33;;;;;;;17.05;8.18;;;22.70;99.90;;;;;;4848817;29;20706;-93
2021/07/17 05:10:59;;;;;;;14.00;7.63;;;22.80;99.90;;;;;;4858138;29;20183;-94
2021/07/17 05:13:24;;;;;;;11.23;7.35;;;22.80;99.90;;;;;;4881865;29;20190;-94
2021/07/17 05:15:50;;;;;;;13.50;8.07;;;22.80;99.90;;;;;;4861341;29;20277;-95
2021/07/17 05:18:16;;;;;;;14.77;8.80;;;22.90;99.90;;;;;;4885840;29;20189;-95
2021/07/17 05:20:43;;;;;;;18.40;8.30;;;23.00;99.90;;;;;;4883783;29;20644;-94
2021/07/17 05:23:10;;;;;;;14.23;8.23;;;23.10;99.90;;;;;;4891960;29;20196;-96
2021/07/17 05:25:36;;;;;;;17.08;8.32;;;23.20;99.90;;;;;;4899549;29;20217;-95
2021/07/17 05:28:03;;;;;;;13.68;8.50;;;23.30;99.90;;;;;;4893189;29;20228;-94
2021/07/17 05:30:29;;;;;;;14.60;8.82;;;23.30;99.90;;;;;;4889325;29;20193;-95
2021/07/17 05:32:54;;;;;;;15.70;8.90;;;23.30;99.90;;;;;;4862340;29;20190;-94
2021/07/17 05:35:20;;;;;;;13.48;8.65;;;23.30;99.90;;;;;;4888471;29;20211;-96
2021/07/17 05:37:46;;;;;;;13.18;7.65;;;23.40;99.90;;;;;;4875474;29;20186;-95
2021/07/17 05:40:12;;;;;;;15.02;8.18;;;23.40;99.90;;;;;;4871906;29;20261;-96
2021/07/17 05:42:38;;;;;;;18.67;9.27;;;23.50;99.90;;;;;;4882687;29;20175;-95
2021/07/17 05:45:04;;;;;;;22.73;9.48;;;23.50;99.90;;;;;;4885351;29;20182;-94
2021/07/17 05:47:30;;;;;;;18.67;8.70;;;23.60;99.90;;;;;;4862774;29;20199;-94
2021/07/17 05:49:58;;;;;;;12.38;8.18;;;23.60;99.90;;;;;;4886957;29;20241;-92
2021/07/17 05:52:23;;;;;;;17.88;8.40;;;23.60;99.90;;;;;;4909475;23;20226;-96
2021/07/17 05:54:49;;;;;;;19.88;8.45;;;23.90;99.90;;;;;;4834638;29;20186;-92
2021/07/17 05:57:15;;;;;;;21.10;13.70;;;24.10;99.90;;;;;;4853561;29;20555;-94
2021/07/17 05:59:51;;;;;;;;;;;;;;;;;;;;;
2021/07/17 06:02:19;;;;;;;17.98;8.80;;;24.20;99.90;;;;;;4894393;29;20276;-93
2021/07/17 06:04:46;;;;;;;15.90;8.00;;;24.50;99.90;;;;;;4873150;29;20198;-93
2021/07/17 06:07:13;;;;;;;13.88;8.50;;;24.40;99.90;;;;;;4889970;29;20644;-94
2021/07/17 06:09:41;;;;;;;19.40;9.50;;;24.70;99.90;;;;;;4860185;29;20194;-94
2021/07/17 06:12:08;;;;;;;24.75;9.60;;;24.60;99.90;;;;;;4881003;29;20256;-94
2021/07/17 06:14:36;;;;;;;18.40;9.05;;;27.50;99.90;;;;;;4894010;29;20219;-94
2021/07/17 06:17:01;;;;;;;21.08;9.50;;;25.10;99.90;;;;;;4874565;29;20178;-95
2021/07/17 06:19:27;;;;;;;25.30;11.52;;;24.90;99.90;;;;;;4866821;29;20189;-94
2021/07/17 06:21:53;;;;;;;20.45;10.27;;;25.10;99.90;;;;;;4863567;29;20193;-92
2021/07/17 06:24:18;;;;;;;20.75;9.75;;;25.20;99.90;;;;;;4862420;29;20206;-93
2021/07/17 06:26:44;;;;;;;18.80;9.73;;;25.30;99.90;;;;;;4864950;29;20214;-93
2021/07/17 06:29:10;;;;;;;14.70;9.68;;;25.40;99.90;;;;;;4866358;29;20221;-95
2021/07/17 06:31:35;;;;;;;12.80;8.82;;;25.50;99.90;;;;;;4865358;29;20190;-95
2021/07/17 06:34:01;;;;;;;21.08;9.98;;;25.70;99.90;;;;;;4848945;29;20194;-96
2021/07/17 06:36:26;;;;;;;17.77;9.52;;;25.70;99.90;;;;;;4860220;29;20286;-96
2021/07/17 06:38:52;;;;;;;19.90;9.20;;;25.80;99.90;;;;;;4844056;29;20201;-95
2021/07/17 06:41:18;;;;;;;17.58;8.40;;;26.00;99.90;;;;;;4863687;29;20670;-95
2021/07/17 06:43:43;;;;;;;17.75;9.27;;;26.00;99.90;;;;;;4848164;29;20194;-96
2021/07/17 06:46:09;;;;;;;19.67;9.27;;;26.00;99.90;;;;;;4865496;29;20567;-95
2021/07/17 06:48:35;;;;;;;20.88;9.95;;;26.00;99.90;;;;;;4866372;29;20202;-96
2021/07/17 06:51:00;;;;;;;16.50;9.25;;;25.90;99.90;;;;;;4865471;29;20225;-94
2021/07/17 06:53:26;;;;;;;17.00;9.57;;;26.00;99.90;;;;;;4892316;29;20714;-96
2021/07/17 06:55:52;;;;;;;21.25;9.50;;;25.90;99.90;;;;;;4883365;29;20185;-96
2021/07/17 06:58:18;;;;;;;12.77;8.02;;;26.10;99.90;;;;;;4970035;23;20341;-95
2021/07/17 07:00:43;;;;;;;19.05;9.75;;;26.20;99.90;;;;;;4901307;29;20200;-92
2021/07/17 07:03:09;;;;;;;18.88;10.18;;;26.30;99.90;;;;;;4882959;29;20192;-94
2021/07/17 07:05:35;;;;;;;23.95;10.70;;;26.40;99.90;;;;;;4882992;29;20213;-96
2021/07/17 07:08:01;;;;;;;27.63;10.60;;;26.50;99.90;;;;;;4885345;29;20212;-95
2021/07/17 07:10:26;;;;;;;21.80;9.75;;;26.40;99.90;;;;;;4900871;29;20201;-95
2021/07/17 07:12:52;;;;;;;20.90;10.00;;;26.50;99.90;;;;;;4897205;29;20223;-95
2021/07/17 07:15:18;;;;;;;17.55;9.38;;;26.50;99.90;;;;;;4897355;29;20204;-95
2021/07/17 07:17:44;;;;;;;17.38;10.20;;;26.60;99.90;;;;;;4873086;29;20185;-93
2021/07/17 07:20:11;;;;;;;21.13;10.90;;;26.70;99.90;;;;;;4890423;29;20681;-95
2021/07/17 07:22:37;;;;;;;16.95;10.18;;;26.80;99.90;;;;;;4905252;29;20188;-93
2021/07/17 07:25:06;;;;;;;24.42;10.73;;;26.90;99.90;;;;;;4900758;29;20186;-92
2021/07/17 07:27:33;;;;;;;20.88;9.77;;;27.00;99.90;;;;;;4888574;29;20209;-94
2021/07/17 07:29:59;;;;;;;24.83;10.70;;;;;;;;;;4892271;29;20261;-96
2021/07/17 07:32:25;;;;;;;19.20;11.15;;;27.00;99.90;;;;;;4899355;29;20241;-95
2021/07/17 07:34:50;;;;;;;23.65;10.50;;;27.10;99.90;;;;;;4907893;29;20193;-96
2021/07/17 07:37:16;;;;;;;17.90;10.25;;;27.10;99.90;;;;;;4889234;29;20189;-95
2021/07/17 07:39:42;;;;;;;20.85;11.10;;;27.20;99.90;;;;;;4874095;29;20200;-94
2021/07/17 07:42:09;;;;;;;21.27;10.77;;;27.20;99.90;;;;;;4884672;29;20268;-91
2021/07/17 07:44:36;;;;;;;17.13;10.30;;;;;;;;;;4878859;29;20221;-93
2021/07/17 07:47:03;;;;;;;17.88;10.15;;;27.20;99.90;;;;;;4896981;29;20272;-93
2021/07/17 07:49:31;;;;;;;22.70;9.93;;;27.30;99.90;;;;;;4880297;29;20257;-93
2021/07/17 07:51:57;;;;;;;19.17;10.02;;;27.30;99.90;;;;;;4880520;29;20288;-93
2021/07/17 07:54:22;;;;;;;25.23;10.43;;;27.40;99.90;;;;;;4862244;29;20280;-96
2021/07/17 07:56:48;;;;;;;26.00;11.07;;;;;;;;;;4895998;29;20293;-96
2021/07/17 07:59:14;;;;;;;19.10;10.73;;;27.70;99.90;;;;;;4882221;29;20244;-96
2021/07/17 08:01:40;;;;;;;24.45;10.50;;;27.80;99.90;;;;;;4913842;23;20787;-90
2021/07/17 08:04:06;;;;;;;18.65;9.85;;;;;;;;;;4845723;29;20191;-95
2021/07/17 08:06:31;;;;;;;20.38;10.15;;;27.90;99.90;;;;;;4828414;29;20607;-93
2021/07/17 08:08:57;;;;;;;19.95;10.95;;;27.90;99.90;;;;;;4827801;29;20274;-94
2021/07/17 08:11:22;;;;;;;19.13;10.18;;;27.80;99.90;;;;;;4849470;29;20220;-95
2021/07/17 08:13:48;;;;;;;16.70;9.80;;;27.80;99.90;;;;;;4848365;29;20194;-93
2021/07/17 08:16:14;;;;;;;23.30;10.60;;;27.80;99.90;;;;;;4843446;29;20217;-91
2021/07/17 08:18:39;;;;;;;27.42;11.18;;;27.80;99.90;;;;;;4861209;29;20254;-94
2021/07/17 08:21:06;;;;;;;22.73;10.48;;;26.80;99.90;;;;;;4831848;29;20286;-94
2021/07/17 08:23:32;;;;;;;16.65;11.25;;;27.90;99.90;;;;;;4859141;29;20727;-91
2021/07/17 08:25:58;;;;;;;25.85;10.52;;;;;;;;;;4827237;29;20195;-94
2021/07/17 08:28:24;;;;;;;20.35;10.32;;;28.00;99.90;;;;;;4858579;29;20210;-92
2021/07/17 08:30:49;;;;;;;23.48;11.35;;;28.10;99.90;;;;;;4840915;29;20869;-95
2021/07/17 08:33:15;;;;;;;22.75;10.60;;;28.20;99.90;;;;;;4812237;29;20678;-92
2021/07/17 08:35:41;;;;;;;22.90;10.85;;;28.20;99.90;;;;;;4845439;29;20238;-92
2021/07/17 08:38:07;;;;;;;29.50;10.18;;;28.40;99.90;;;;;;4842945;29;20257;-93
2021/07/17 08:40:33;;;;;;;21.10;10.90;;;28.30;99.90;;;;;;4822956;29;20191;-94
2021/07/17 08:42:58;;;;;;;23.35;9.68;;;28.20;99.90;;;;;;4858755;29;20273;-95
2021/07/17 08:45:26;;;;;;;18.80;10.13;;;28.10;99.90;;;;;;4858749;29;20327;-94
2021/07/17 08:47:53;;;;;;;15.50;9.20;;;28.10;99.90;;;;;;4861646;29;20315;-93
2021/07/17 08:50:22;;;;;;;19.38;10.73;;;28.10;99.90;;;;;;4843409;29;20194;-91
2021/07/17 08:52:57;;;;;;;17.77;10.68;;;28.10;99.90;;;;;;4846282;29;20187;-94
2021/07/17 08:55:25;;;;;;;18.15;10.30;;;28.20;99.90;;;;;;4845053;29;20554;-92
2021/07/17 08:57:51;;;;;;;17.98;10.32;;;28.30;99.90;;;;;;4862621;29;20254;-91
2021/07/17 09:00:21;;;;;;;24.13;11.02;;;28.40;99.90;;;;;;4862425;29;20230;-90
2021/07/17 09:02:49;;;;;;;16.80;10.27;;;28.50;99.90;;;;;;4861292;29;20234;-91
2021/07/17 09:05:18;;;;;;;15.40;10.15;;;28.40;99.90;;;;;;4845749;29;20349;-93
2021/07/17 09:07:44;;;;;;;14.48;10.88;;;28.40;99.90;;;;;;4861862;29;20222;-95
2021/07/17 09:10:36;;;;;;;17.30;10.13;;;28.40;99.90;;;;;;4815753;29;20190;-95
2021/07/17 09:13:13;;;;;;;20.40;10.90;;;28.40;99.90;;;;;;4845166;29;20201;-95
2021/07/17 09:15:44;;;;;;;20.17;10.45;;;28.40;99.90;;;;;;4845988;29;20189;-93
2021/07/17 09:18:10;;;;;;;19.73;11.18;;;28.40;99.90;;;;;;4846194;29;20277;-95
2021/07/17 09:20:37;;;;;;;21.83;10.57;;;28.50;99.90;;;;;;4832244;29;20187;-93
2021/07/17 09:23:06;;;;;;;22.45;10.27;;;28.50;99.90;;;;;;4855828;29;20234;-95
2021/07/17 09:25:40;;;;;;;21.65;10.90;;;28.60;99.90;;;;;;4861523;29;20207;-95
2021/07/17 09:28:30;;;;;;;19.00;9.77;;;28.50;99.90;;;;;;4863460;29;20566;-96
2021/07/17 09:31:03;;;;;;;18.33;11.07;;;28.50;99.90;;;;;;4840456;29;20198;-95
2021/07/17 09:33:29;;;;;;;18.70;10.30;;;28.50;99.90;;;;;;4847649;29;20207;-94
2021/07/17 09:35:59;;;;;;;15.80;10.43;;;28.50;99.90;;;;;;4834079;29;20344;-93
2021/07/17 09:38:29;;;;;;;19.33;10.85;;;28.60;99.90;;;;;;4847281;29;20250;-92
2021/07/17 09:40:56;;;;;;;21.38;11.82;;;28.70;99.90;;;;;;4834568;29;20215;-95
2021/07/17 09:43:32;;;;;;;18.30;11.38;;;28.80;99.90;;;;;;4842295;29;20247;-95
2021/07/17 09:45:59;;;;;;;15.63;10.65;;;29.50;99.90;;;;;;4844660;29;20250;-95
2021/07/17 09:48:26;;;;;;;22.15;11.77;;;29.20;99.90;;;;;;4847176;29;20250;-95
2021/07/17 09:50:53;;;;;;;21.55;10.90;;;29.30;99.90;;;;;;4844933;29;20191;-94
2021/07/17 09:53:43;;;;;;;19.80;11.02;;;29.40;99.90;;;;;;4860207;29;20191;-94
2021/07/17 09:56:17;;;;;;;20.85;11.90;;;29.40;99.90;;;;;;4844676;29;20648;-96
2021/07/17 09:58:43;;;;;;;19.27;11.07;;;29.40;99.90;;;;;;4844498;29;20198;-90
2021/07/17 10:01:39;;;;;;;27.48;10.65;;;29.60;99.90;;;;;;4860719;29;20696;-87
2021/07/17 10:04:09;;;;;;;24.73;11.38;;;29.70;99.90;;;;;;4827216;29;20205;-90
2021/07/17 10:06:57;;;;;;;18.73;11.27;;;29.80;99.90;;;;;;4860525;29;20190;-90
2021/07/17 10:09:34;;;;;;;17.38;11.00;;;29.60;99.90;;;;;;4857600;29;20214;-90
2021/07/17 10:12:08;;;;;;;18.40;11.20;;;30.80;99.90;;;;;;4860256;29;20209;-90
2021/07/17 10:14:42;;;;;;;18.98;10.80;;;29.90;99.90;;;;;;4859944;29;20791;-90
2021/07/17 10:17:17;;;;;;;20.85;10.98;;;29.60;99.90;;;;;;4858047;29;20183;-91
2021/07/17 10:19:45;;;;;;;17.60;10.32;;;29.20;99.90;;;;;;4859228;29;20186;-91
2021/07/17 10:22:11;;;;;;;20.02;11.95;;;29.20;99.90;;;;;;4843433;29;20190;-92
2021/07/17 10:24:38;;;;;;;17.70;11.10;;;29.00;99.90;;;;;;4859827;29;20194;-92
2021/07/17 10:27:05;;;;;;;20.75;11.55;;;28.90;99.90;;;;;;4843537;29;20273;-89
2021/07/17 10:29:34;;;;;;;19.02;10.32;;;28.90;99.90;;;;;;4827820;29;20250;-90
2021/07/17 10:32:00;;;;;;;15.60;11.48;;;28.90;99.90;;;;;;4843989;29;20195;-90
2021/07/17 10:34:26;;;;;;;19.27;12.77;;;28.90;99.90;;;;;;4843427;29;20648;-90
2021/07/17 10:36:53;;;;;;;22.75;14.27;;;;;;;;;;4828942;29;20201;-89
2021/07/17 10:39:24;;;;;;;17.02;10.85;;;29.10;99.90;;;;;;4836936;29;20194;-88
2021/07/17 10:41:50;;;;;;;19.08;11.27;;;29.10;99.90;;;;;;4843659;29;20183;-89
2021/07/17 10:44:16;;;;;;;20.73;13.55;;;;;;;;;;4858697;29;20218;-89
2021/07/17 10:46:43;;;;;;;22.42;11.80;;;29.30;99.90;;;;;;4858482;29;20194;-89
2021/07/17 10:49:11;;;;;;;20.48;11.80;;;29.30;99.90;;;;;;4842362;29;20225;-91
2021/07/17 10:51:50;;;;;;;21.45;11.57;;;29.40;99.90;;;;;;4841811;29;20210;-90
2021/07/17 10:54:29;;;;;;;22.10;12.10;;;29.40;99.90;;;;;;4842717;29;20186;-90
2021/07/17 10:56:54;;;;;;;23.13;12.38;;;29.50;99.90;;;;;;4841917;29;20632;-90
2021/07/17 10:59:20;;;;;;;22.90;13.65;;;29.70;99.90;;;;;;4839149;29;20715;-89
2021/07/17 11:02:02;;;;;;;18.20;12.75;;;29.80;99.90;;;;;;4839250;29;20265;-89
2021/07/17 11:04:39;;;;;;;20.85;11.85;;;29.80;99.90;;;;;;4860329;29;20186;-90
2021/07/17 11:07:16;;;;;;;22.48;11.95;;;29.80;99.90;;;;;;4843452;29;20193;-89
2021/07/17 11:10:10;;;;;;;22.02;11.98;;;29.70;99.90;;;;;;4868739;29;20194;-91
2021/07/17 11:12:35;;;;;;;24.58;13.52;;;29.90;99.90;;;;;;4851339;29;20240;-89
2021/07/17 11:15:07;;;;;;;26.08;12.05;;;29.90;99.90;;;;;;4849629;29;20178;-89
2021/07/17 11:17:43;;;;;;;19.88;12.48;;;30.00;99.90;;;;;;4860662;29;20218;-86
2021/07/17 11:20:25;;;;;;;19.05;11.43;;;30.10;99.90;;;;;;4858654;29;20218;-87
2021/07/17 11:23:02;;;;;;;20.80;13.13;;;30.20;99.90;;;;;;4855668;29;20194;-88
2021/07/17 11:25:28;;;;;;;23.27;13.13;;;;;;;;;;4856139;29;20209;-87
2021/07/17 11:27:54;;;;;;;14.35;10.80;;;30.40;99.90;;;;;;4858331;29;20252;-87
2021/07/17 11:30:21;;;;;;;26.58;12.40;;;30.50;99.90;;;;;;4837101;29;20237;-88
2021/07/17 11:33:05;;;;;;;23.83;11.50;;;30.50;99.90;;;;;;4841800;29;20190;-87
2021/07/17 11:35:36;;;;;;;17.23;12.30;;;30.60;99.90;;;;;;4842333;29;20568;-87
2021/07/17 11:38:04;;;;;;;22.27;10.85;;;30.40;99.90;;;;;;4857721;29;20191;-86
2021/07/17 11:40:30;;;;;;;20.52;12.32;;;30.40;99.90;;;;;;4858790;29;20249;-87
2021/07/17 11:43:00;;;;;;;18.85;11.50;;;30.40;99.90;;;;;;4841643;29;20186;-88
2021/07/17 11:45:26;;;;;;;23.58;12.20;;;30.40;99.90;;;;;;4842604;29;20653;-87
2021/07/17 11:47:52;;;;;;;20.67;11.10;;;;;;;;;;4842520;29;20222;-89
2021/07/17 11:50:21;;;;;;;16.90;11.20;;;30.50;99.90;;;;;;4827388;29;20201;-90
2021/07/17 11:52:47;;;;;;;21.42;11.27;;;30.50;99.90;;;;;;4841619;29;20186;-88
2021/07/17 11:55:15;;;;;;;20.13;10.88;;;30.50;99.90;;;;;;4859225;29;20569;-88
2021/07/17 11:57:44;;;;;;;21.20;11.85;;;30.40;99.90;;;;;;4858513;29;20191;-88
2021/07/17 12:00:17;;;;;;;16.25;11.40;;;30.50;99.90;;;;;;4841553;29;20238;-88
2021/07/17 12:02:44;;;;;;;23.83;10.95;;;30.50;99.90;;;;;;4857590;29;20230;-88
2021/07/17 12:05:14;;;;;;;16.60;10.80;;;29.90;99.90;;;;;;4841643;29;20301;-90
2021/07/17 12:07:41;;;;;;;18.08;10.95;;;30.60;99.90;;;;;;4860666;29;20214;-90
2021/07/17 12:10:10;;;;;;;18.23;11.10;;;30.60;99.90;;;;;;4859237;29;20187;-88
2021/07/17 12:12:42;;;;;;;20.38;10.65;;;30.50;99.90;;;;;;4858240;29;20534;-88
2021/07/17 12:15:11;;;;;;;17.88;11.25;;;30.70;99.90;;;;;;4841180;29;20187;-88
2021/07/17 12:17:40;;;;;;;16.88;10.93;;;30.80;99.90;;;;;;4858234;29;20190;-91
2021/07/17 12:20:09;;;;;;;14.98;10.32;;;30.90;99.90;;;;;;4840836;29;20197;-88
2021/07/17 12:22:36;;;;;;;21.27;11.13;;;30.80;99.90;;;;;;4856147;29;20640;-89
2021/07/17 12:25:07;;;;;;;14.80;10.50;;;30.80;99.90;;;;;;4841378;29;20198;-88
2021/07/17 12:27:48;;;;;;;16.75;12.00;;;30.80;99.90;;;;;;4857902;29;20186;-89
2021/07/17 12:30:14;;;;;;;13.13;9.93;;;;;;;;;;4858068;29;20566;-89
2021/07/17 12:32:40;;;;;;;19.38;10.55;;;;;;;;;;4838777;29;20195;-88
2021/07/17 12:35:06;;;;;;;22.40;11.65;;;30.80;99.90;;;;;;4858237;29;20186;-90
2021/07/17 12:37:32;;;;;;;19.40;11.77;;;;;;;;;;4826302;29;20190;-89
2021/07/17 12:40:11;;;;;;;16.80;10.82;;;31.00;99.90;;;;;;4857472;29;20229;-90
2021/07/17 12:42:47;;;;;;;12.93;10.38;;;31.00;99.90;;;;;;4841567;29;20258;-89